sensor_id;sensor_type;location;lat;lon;timestamp;pressure;altitude;pressure_sealevel;temperature;humidity
40850;BME280;26571;41.610;25.380;2023-03-18T00:02:22;98804.34;;;6.76;nan
40850;BME280;26571;41.610;25.380;2023-03-18T00:04:48;98833.34;;;6.93;nan
40850;BME280;26571;41.610;25.380;2023-03-18T00:07:13;98828.34;;;6.81;nan
40850;BME280;26571;41.610;25.380;2023-03-18T00:09:38;98799.81;;;6.68;nan
40850;BME280;26571;41.610;25.380;2023-03-18T00:12:05;98822.59;;;6.87;nan
40850;BME280;26571;41.610;25.380;2023-03-18T00:14:31;98823.97;;;6.91;nan
40850;BME280;26571;41.610;25.380;2023-03-18T00:16:57;98816.25;;;6.89;nan
40850;BME280;26571;41.610;25.380;2023-03-18T00:19:23;98814.16;;;6.83;nan
40850;BME280;26571;41.610;25.380;2023-03-18T00:21:50;98814.56;;;6.79;nan
40850;BME280;26571;41.610;25.380;2023-03-18T00:24:15;98853.97;;;6.77;nan
40850;BME280;26571;41.610;25.380;2023-03-18T00:26:42;98785.59;;;6.61;nan
40850;BME280;26571;41.610;25.380;2023-03-18T00:29:08;98815.25;;;6.81;nan
40850;BME280;26571;41.610;25.380;2023-03-18T00:31:34;98819.81;;;6.79;nan
40850;BME280;26571;41.610;25.380;2023-03-18T00:34:00;98807.50;;;6.69;nan
40850;BME280;26571;41.610;25.380;2023-03-18T00:36:25;98811.53;;;6.73;nan
40850;BME280;26571;41.610;25.380;2023-03-18T00:38:53;98803.94;;;6.70;nan
40850;BME280;26571;41.610;25.380;2023-03-18T00:41:25;98798.31;;;6.75;nan
40850;BME280;26571;41.610;25.380;2023-03-18T00:43:51;98797.75;;;6.71;nan
40850;BME280;26571;41.610;25.380;2023-03-18T00:46:29;98794.56;;;6.68;nan
40850;BME280;26571;41.610;25.380;2023-03-18T00:48:57;98801.03;;;6.64;nan
40850;BME280;26571;41.610;25.380;2023-03-18T00:51:25;98798.41;;;6.64;nan
40850;BME280;26571;41.610;25.380;2023-03-18T00:53:52;98795.78;;;6.64;nan
40850;BME280;26571;41.610;25.380;2023-03-18T00:56:21;98793.44;;;6.61;nan
40850;BME280;26571;41.610;25.380;2023-03-18T00:58:47;98789.72;;;6.63;nan
40850;BME280;26571;41.610;25.380;2023-03-18T01:01:13;98790.00;;;6.60;nan
40850;BME280;26571;41.610;25.380;2023-03-18T01:03:40;98791.63;;;6.61;nan
40850;BME280;26571;41.610;25.380;2023-03-18T01:06:14;98770.16;;;6.58;nan
40850;BME280;26571;41.610;25.380;2023-03-18T01:08:40;98754.88;;;6.53;nan
40850;BME280;26571;41.610;25.380;2023-03-18T01:11:07;98771.28;;;6.65;nan
40850;BME280;26571;41.610;25.380;2023-03-18T01:13:33;98781.50;;;6.68;nan
40850;BME280;26571;41.610;25.380;2023-03-18T01:15:59;98779.38;;;6.52;nan
40850;BME280;26571;41.610;25.380;2023-03-18T01:18:26;98776.47;;;6.55;nan
40850;BME280;26571;41.610;25.380;2023-03-18T01:20:52;98754.41;;;6.38;nan
40850;BME280;26571;41.610;25.380;2023-03-18T01:23:18;98771.22;;;6.45;nan
40850;BME280;26571;41.610;25.380;2023-03-18T01:25:44;98776.22;;;6.58;nan
40850;BME280;26571;41.610;25.380;2023-03-18T01:28:10;98771.53;;;6.52;nan
40850;BME280;26571;41.610;25.380;2023-03-18T01:30:37;98764.19;;;6.46;nan
40850;BME280;26571;41.610;25.380;2023-03-18T01:33:03;98768.47;;;6.47;nan
40850;BME280;26571;41.610;25.380;2023-03-18T01:35:30;98767.47;;;6.38;nan
40850;BME280;26571;41.610;25.380;2023-03-18T01:37:56;98779.44;;;6.41;nan
40850;BME280;26571;41.610;25.380;2023-03-18T01:40:23;98778.75;;;6.39;nan
40850;BME280;26571;41.610;25.380;2023-03-18T01:43:04;98771.59;;;6.41;nan
40850;BME280;26571;41.610;25.380;2023-03-18T01:45:39;98767.19;;;6.32;nan
40850;BME280;26571;41.610;25.380;2023-03-18T01:48:04;98764.81;;;6.29;nan
40850;BME280;26571;41.610;25.380;2023-03-18T01:50:32;98766.28;;;6.21;nan
40850;BME280;26571;41.610;25.380;2023-03-18T01:53:02;98758.72;;;6.18;nan
40850;BME280;26571;41.610;25.380;2023-03-18T01:55:30;98758.44;;;6.21;nan
40850;BME280;26571;41.610;25.380;2023-03-18T01:57:56;98763.28;;;6.26;nan
40850;BME280;26571;41.610;25.380;2023-03-18T02:00:23;98762.78;;;6.11;nan
40850;BME280;26571;41.610;25.380;2023-03-18T02:02:50;98755.03;;;6.00;nan
40850;BME280;26571;41.610;25.380;2023-03-18T02:05:20;98765.78;;;5.97;nan
40850;BME280;26571;41.610;25.380;2023-03-18T02:07:46;98769.22;;;5.98;nan
40850;BME280;26571;41.610;25.380;2023-03-18T02:10:23;98770.72;;;6.00;nan
40850;BME280;26571;41.610;25.380;2023-03-18T02:12:51;98774.06;;;6.02;nan
40850;BME280;26571;41.610;25.380;2023-03-18T02:15:20;98772.06;;;5.94;nan
40850;BME280;26571;41.610;25.380;2023-03-18T02:17:52;98735.28;;;5.65;nan
40850;BME280;26571;41.610;25.380;2023-03-18T02:20:33;98776.38;;;5.84;nan
40850;BME280;26571;41.610;25.380;2023-03-18T02:25:50;98771.41;;;5.81;nan
40850;BME280;26571;41.610;25.380;2023-03-18T02:28:23;98781.16;;;5.79;nan
40850;BME280;26571;41.610;25.380;2023-03-18T02:30:54;98777.44;;;5.82;nan
40850;BME280;26571;41.610;25.380;2023-03-18T02:33:23;98772.22;;;5.82;nan
40850;BME280;26571;41.610;25.380;2023-03-18T02:35:55;98784.78;;;5.88;nan
40850;BME280;26571;41.610;25.380;2023-03-18T02:38:21;98784.06;;;5.86;nan
40850;BME280;26571;41.610;25.380;2023-03-18T02:40:47;98772.50;;;5.79;nan
40850;BME280;26571;41.610;25.380;2023-03-18T02:43:23;98781.84;;;5.81;nan
40850;BME280;26571;41.610;25.380;2023-03-18T02:48:19;98783.53;;;5.82;nan
40850;BME280;26571;41.610;25.380;2023-03-18T02:50:47;98781.47;;;5.86;nan
40850;BME280;26571;41.610;25.380;2023-03-18T02:53:14;98780.78;;;5.84;nan
40850;BME280;26571;41.610;25.380;2023-03-18T02:55:40;98779.13;;;5.83;nan
40850;BME280;26571;41.610;25.380;2023-03-18T02:58:07;98778.47;;;5.69;nan
40850;BME280;26571;41.610;25.380;2023-03-18T03:00:33;98779.16;;;5.71;nan
40850;BME280;26571;41.610;25.380;2023-03-18T03:02:59;98778.53;;;5.79;nan
40850;BME280;26571;41.610;25.380;2023-03-18T03:05:24;98776.56;;;5.71;nan
40850;BME280;26571;41.610;25.380;2023-03-18T03:07:50;98777.28;;;5.74;nan
40850;BME280;26571;41.610;25.380;2023-03-18T03:10:16;98776.31;;;5.75;nan
40850;BME280;26571;41.610;25.380;2023-03-18T03:12:41;98768.28;;;5.66;nan
40850;BME280;26571;41.610;25.380;2023-03-18T03:15:07;98749.47;;;5.52;nan
40850;BME280;26571;41.610;25.380;2023-03-18T03:17:34;98745.13;;;5.41;nan
40850;BME280;26571;41.610;25.380;2023-03-18T03:20:00;98770.78;;;5.47;nan
40850;BME280;26571;41.610;25.380;2023-03-18T03:22:25;98763.50;;;5.51;nan
40850;BME280;26571;41.610;25.380;2023-03-18T03:24:51;98777.88;;;5.45;nan
40850;BME280;26571;41.610;25.380;2023-03-18T03:27:17;98779.81;;;5.43;nan
40850;BME280;26571;41.610;25.380;2023-03-18T03:29:43;98759.44;;;5.26;nan
40850;BME280;26571;41.610;25.380;2023-03-18T03:32:08;98779.22;;;5.39;nan
40850;BME280;26571;41.610;25.380;2023-03-18T03:34:34;98777.56;;;5.38;nan
40850;BME280;26571;41.610;25.380;2023-03-18T03:37:00;98782.97;;;5.47;nan
40850;BME280;26571;41.610;25.380;2023-03-18T03:39:25;98780.94;;;5.50;nan
40850;BME280;26571;41.610;25.380;2023-03-18T03:41:51;98785.34;;;5.50;nan
40850;BME280;26571;41.610;25.380;2023-03-18T03:44:17;98784.06;;;5.44;nan
40850;BME280;26571;41.610;25.380;2023-03-18T03:46:43;98785.94;;;5.53;nan
40850;BME280;26571;41.610;25.380;2023-03-18T03:49:09;98783.25;;;5.43;nan
40850;BME280;26571;41.610;25.380;2023-03-18T03:51:35;98783.59;;;5.39;nan
40850;BME280;26571;41.610;25.380;2023-03-18T03:54:01;98776.00;;;5.36;nan
40850;BME280;26571;41.610;25.380;2023-03-18T03:56:27;98757.78;;;5.25;nan
40850;BME280;26571;41.610;25.380;2023-03-18T03:58:53;98779.81;;;5.32;nan
40850;BME280;26571;41.610;25.380;2023-03-18T04:01:18;98776.19;;;5.23;nan
40850;BME280;26571;41.610;25.380;2023-03-18T04:03:44;98774.72;;;5.30;nan
40850;BME280;26571;41.610;25.380;2023-03-18T04:06:09;98784.59;;;5.27;nan
40850;BME280;26571;41.610;25.380;2023-03-18T04:08:35;98780.25;;;5.16;nan
40850;BME280;26571;41.610;25.380;2023-03-18T04:11:00;98782.97;;;5.14;nan
40850;BME280;26571;41.610;25.380;2023-03-18T04:13:27;98802.31;;;5.12;nan
40850;BME280;26571;41.610;25.380;2023-03-18T04:15:53;98781.69;;;5.09;nan
40850;BME280;26571;41.610;25.380;2023-03-18T04:18:18;98783.94;;;5.13;nan
40850;BME280;26571;41.610;25.380;2023-03-18T04:20:44;98784.19;;;5.10;nan
40850;BME280;26571;41.610;25.380;2023-03-18T04:23:10;98781.88;;;5.17;nan
40850;BME280;26571;41.610;25.380;2023-03-18T04:25:36;98786.78;;;5.10;nan
40850;BME280;26571;41.610;25.380;2023-03-18T04:28:02;98788.44;;;5.11;nan
40850;BME280;26571;41.610;25.380;2023-03-18T04:30:28;98787.09;;;5.17;nan
40850;BME280;26571;41.610;25.380;2023-03-18T04:32:54;98791.41;;;5.07;nan
40850;BME280;26571;41.610;25.380;2023-03-18T04:35:21;98787.28;;;5.04;nan
40850;BME280;26571;41.610;25.380;2023-03-18T04:37:47;98788.25;;;5.03;nan
40850;BME280;26571;41.610;25.380;2023-03-18T04:40:13;98795.56;;;5.09;nan
40850;BME280;26571;41.610;25.380;2023-03-18T04:42:38;98800.56;;;5.12;nan
40850;BME280;26571;41.610;25.380;2023-03-18T04:45:05;98765.22;;;4.97;nan
40850;BME280;26571;41.610;25.380;2023-03-18T04:47:31;98801.72;;;5.19;nan
40850;BME280;26571;41.610;25.380;2023-03-18T04:49:57;98799.31;;;5.28;nan
40850;BME280;26571;41.610;25.380;2023-03-18T04:52:23;98807.84;;;5.30;nan
40850;BME280;26571;41.610;25.380;2023-03-18T04:54:49;98803.78;;;5.37;nan
40850;BME280;26571;41.610;25.380;2023-03-18T04:57:15;98809.44;;;5.42;nan
40850;BME280;26571;41.610;25.380;2023-03-18T04:59:41;98806.84;;;5.42;nan
40850;BME280;26571;41.610;25.380;2023-03-18T05:02:07;98807.25;;;5.37;nan
40850;BME280;26571;41.610;25.380;2023-03-18T05:04:33;98814.81;;;5.40;nan
40850;BME280;26571;41.610;25.380;2023-03-18T05:06:58;98807.34;;;5.36;nan
40850;BME280;26571;41.610;25.380;2023-03-18T05:09:24;98816.38;;;5.32;nan
40850;BME280;26571;41.610;25.380;2023-03-18T05:11:49;98805.94;;;5.32;nan
40850;BME280;26571;41.610;25.380;2023-03-18T05:14:15;98793.75;;;5.21;nan
40850;BME280;26571;41.610;25.380;2023-03-18T05:16:41;98814.19;;;5.48;nan
40850;BME280;26571;41.610;25.380;2023-03-18T05:19:07;98801.44;;;5.34;nan
40850;BME280;26571;41.610;25.380;2023-03-18T05:21:34;98823.50;;;5.62;nan
40850;BME280;26571;41.610;25.380;2023-03-18T05:24:00;98817.19;;;5.64;nan
40850;BME280;26571;41.610;25.380;2023-03-18T05:26:27;98827.66;;;5.64;nan
40850;BME280;26571;41.610;25.380;2023-03-18T05:28:52;98826.91;;;5.74;nan
40850;BME280;26571;41.610;25.380;2023-03-18T05:31:18;98833.78;;;5.75;nan
40850;BME280;26571;41.610;25.380;2023-03-18T05:33:44;98817.72;;;5.79;nan
40850;BME280;26571;41.610;25.380;2023-03-18T05:36:10;98821.09;;;5.91;nan
40850;BME280;26571;41.610;25.380;2023-03-18T05:38:35;98821.09;;;6.02;nan
40850;BME280;26571;41.610;25.380;2023-03-18T05:41:01;98790.13;;;5.86;nan
40850;BME280;26571;41.610;25.380;2023-03-18T05:43:27;98816.22;;;6.18;nan
40850;BME280;26571;41.610;25.380;2023-03-18T05:45:53;98807.81;;;6.15;nan
40850;BME280;26571;41.610;25.380;2023-03-18T05:48:19;98820.22;;;6.43;nan
40850;BME280;26571;41.610;25.380;2023-03-18T05:50:45;98819.47;;;6.62;nan
40850;BME280;26571;41.610;25.380;2023-03-18T05:53:11;98818.56;;;6.83;nan
40850;BME280;26571;41.610;25.380;2023-03-18T05:55:38;98780.00;;;6.85;nan
40850;BME280;26571;41.610;25.380;2023-03-18T05:58:05;98803.09;;;7.30;nan
40850;BME280;26571;41.610;25.380;2023-03-18T06:00:30;98822.44;;;7.67;nan
40850;BME280;26571;41.610;25.380;2023-03-18T06:02:57;98819.00;;;8.43;nan
40850;BME280;26571;41.610;25.380;2023-03-18T06:05:23;98818.59;;;10.27;nan
40850;BME280;26571;41.610;25.380;2023-03-18T06:07:50;98813.31;;;12.91;nan
40850;BME280;26571;41.610;25.380;2023-03-18T06:10:16;98815.56;;;15.50;nan
40850;BME280;26571;41.610;25.380;2023-03-18T06:12:42;98822.03;;;17.57;nan
40850;BME280;26571;41.610;25.380;2023-03-18T06:15:10;98823.88;;;18.83;nan
40850;BME280;26571;41.610;25.380;2023-03-18T06:17:36;98823.16;;;19.21;nan
40850;BME280;26571;41.610;25.380;2023-03-18T06:20:03;98820.19;;;19.35;nan
40850;BME280;26571;41.610;25.380;2023-03-18T06:22:29;98808.88;;;19.40;nan
40850;BME280;26571;41.610;25.380;2023-03-18T06:24:55;98813.06;;;18.71;nan
40850;BME280;26571;41.610;25.380;2023-03-18T06:27:21;98827.81;;;17.07;nan
40850;BME280;26571;41.610;25.380;2023-03-18T06:29:47;98832.72;;;15.69;nan
40850;BME280;26571;41.610;25.380;2023-03-18T06:32:13;98827.44;;;14.30;nan
40850;BME280;26571;41.610;25.380;2023-03-18T06:34:38;98825.53;;;14.01;nan
40850;BME280;26571;41.610;25.380;2023-03-18T06:37:04;98816.53;;;14.10;nan
40850;BME280;26571;41.610;25.380;2023-03-18T06:39:29;98814.47;;;15.23;nan
40850;BME280;26571;41.610;25.380;2023-03-18T06:41:55;98811.75;;;16.24;nan
40850;BME280;26571;41.610;25.380;2023-03-18T06:44:21;98808.69;;;17.44;nan
40850;BME280;26571;41.610;25.380;2023-03-18T06:46:47;98806.91;;;18.44;nan
40850;BME280;26571;41.610;25.380;2023-03-18T06:49:13;98816.22;;;19.51;nan
40850;BME280;26571;41.610;25.380;2023-03-18T06:51:39;98815.88;;;20.73;nan
40850;BME280;26571;41.610;25.380;2023-03-18T06:54:05;98810.16;;;21.06;nan
40850;BME280;26571;41.610;25.380;2023-03-18T06:56:31;98815.22;;;20.96;nan
40850;BME280;26571;41.610;25.380;2023-03-18T06:59:02;98806.94;;;21.15;nan
40850;BME280;26571;41.610;25.380;2023-03-18T07:01:27;98816.75;;;21.40;nan
40850;BME280;26571;41.610;25.380;2023-03-18T07:03:54;98812.78;;;20.94;nan
40850;BME280;26571;41.610;25.380;2023-03-18T07:06:20;98800.09;;;19.96;nan
40850;BME280;26571;41.610;25.380;2023-03-18T07:08:46;98801.31;;;20.69;nan
40850;BME280;26571;41.610;25.380;2023-03-18T07:11:11;98805.19;;;19.79;nan
40850;BME280;26571;41.610;25.380;2023-03-18T07:13:37;98799.59;;;20.31;nan
40850;BME280;26571;41.610;25.380;2023-03-18T07:16:03;98807.84;;;20.54;nan
40850;BME280;26571;41.610;25.380;2023-03-18T07:18:29;98791.28;;;20.21;nan
40850;BME280;26571;41.610;25.380;2023-03-18T07:20:55;98798.25;;;20.47;nan
40850;BME280;26571;41.610;25.380;2023-03-18T07:23:20;98799.53;;;20.62;nan
40850;BME280;26571;41.610;25.380;2023-03-18T07:25:46;98787.59;;;19.58;nan
40850;BME280;26571;41.610;25.380;2023-03-18T07:28:11;98812.25;;;18.38;nan
40850;BME280;26571;41.610;25.380;2023-03-18T07:30:37;98803.13;;;17.26;nan
40850;BME280;26571;41.610;25.380;2023-03-18T07:33:04;98798.75;;;17.93;nan
40850;BME280;26571;41.610;25.380;2023-03-18T07:35:29;98799.81;;;17.17;nan
40850;BME280;26571;41.610;25.380;2023-03-18T07:37:55;98780.53;;;17.09;nan
40850;BME280;26571;41.610;25.380;2023-03-18T07:40:21;98795.19;;;17.52;nan
40850;BME280;26571;41.610;25.380;2023-03-18T07:42:47;98793.63;;;17.03;nan
40850;BME280;26571;41.610;25.380;2023-03-18T07:45:12;98795.75;;;17.21;nan
40850;BME280;26571;41.610;25.380;2023-03-18T07:47:37;98778.25;;;16.99;nan
40850;BME280;26571;41.610;25.380;2023-03-18T07:50:04;98790.97;;;16.62;nan
40850;BME280;26571;41.610;25.380;2023-03-18T07:52:30;98793.19;;;16.59;nan
40850;BME280;26571;41.610;25.380;2023-03-18T07:54:55;98787.91;;;15.81;nan
40850;BME280;26571;41.610;25.380;2023-03-18T07:57:21;98774.19;;;15.35;nan
40850;BME280;26571;41.610;25.380;2023-03-18T07:59:46;98784.97;;;15.33;nan
40850;BME280;26571;41.610;25.380;2023-03-18T08:02:13;98786.97;;;15.10;nan
40850;BME280;26571;41.610;25.380;2023-03-18T08:04:39;98785.13;;;15.10;nan
40850;BME280;26571;41.610;25.380;2023-03-18T08:07:04;98778.16;;;15.24;nan
40850;BME280;26571;41.610;25.380;2023-03-18T08:09:30;98779.09;;;15.02;nan
40850;BME280;26571;41.610;25.380;2023-03-18T08:11:56;98744.81;;;14.49;nan
40850;BME280;26571;41.610;25.380;2023-03-18T08:14:22;98789.91;;;14.41;nan
40850;BME280;26571;41.610;25.380;2023-03-18T08:16:47;98773.72;;;14.21;nan
40850;BME280;26571;41.610;25.380;2023-03-18T08:19:13;98775.91;;;14.03;nan
40850;BME280;26571;41.610;25.380;2023-03-18T08:21:39;98787.81;;;13.84;nan
40850;BME280;26571;41.610;25.380;2023-03-18T08:24:05;98776.09;;;13.32;nan
40850;BME280;26571;41.610;25.380;2023-03-18T08:26:30;98787.78;;;13.07;nan
40850;BME280;26571;41.610;25.380;2023-03-18T08:28:56;98787.97;;;13.05;nan
40850;BME280;26571;41.610;25.380;2023-03-18T08:31:22;98781.91;;;12.97;nan
40850;BME280;26571;41.610;25.380;2023-03-18T08:33:47;98781.34;;;13.09;nan
40850;BME280;26571;41.610;25.380;2023-03-18T08:36:14;98776.50;;;13.21;nan
40850;BME280;26571;41.610;25.380;2023-03-18T08:38:40;98780.16;;;13.12;nan
40850;BME280;26571;41.610;25.380;2023-03-18T08:41:05;98779.84;;;12.84;nan
40850;BME280;26571;41.610;25.380;2023-03-18T08:43:31;98786.03;;;12.68;nan
40850;BME280;26571;41.610;25.380;2023-03-18T08:45:57;98779.06;;;12.03;nan
40850;BME280;26571;41.610;25.380;2023-03-18T08:48:23;98770.31;;;11.70;nan
40850;BME280;26571;41.610;25.380;2023-03-18T08:50:50;98740.31;;;11.47;nan
40850;BME280;26571;41.610;25.380;2023-03-18T08:53:17;98773.13;;;11.77;nan
40850;BME280;26571;41.610;25.380;2023-03-18T08:55:43;98747.56;;;12.10;nan
40850;BME280;26571;41.610;25.380;2023-03-18T08:58:09;98746.25;;;11.81;nan
40850;BME280;26571;41.610;25.380;2023-03-18T09:00:36;98784.16;;;11.72;nan
40850;BME280;26571;41.610;25.380;2023-03-18T09:03:03;98768.34;;;11.56;nan
40850;BME280;26571;41.610;25.380;2023-03-18T09:05:28;98777.56;;;11.35;nan
40850;BME280;26571;41.610;25.380;2023-03-18T09:07:57;98774.59;;;11.47;nan
40850;BME280;26571;41.610;25.380;2023-03-18T09:10:23;98780.69;;;11.31;nan
40850;BME280;26571;41.610;25.380;2023-03-18T09:12:49;98773.22;;;11.18;nan
40850;BME280;26571;41.610;25.380;2023-03-18T09:15:16;98786.09;;;11.21;nan
40850;BME280;26571;41.610;25.380;2023-03-18T09:17:44;98788.78;;;10.87;nan
40850;BME280;26571;41.610;25.380;2023-03-18T09:20:12;98791.53;;;10.69;nan
40850;BME280;26571;41.610;25.380;2023-03-18T09:22:39;98787.97;;;10.44;nan
40850;BME280;26571;41.610;25.380;2023-03-18T09:25:06;98794.34;;;10.42;nan
40850;BME280;26571;41.610;25.380;2023-03-18T09:27:31;98791.38;;;10.37;nan
40850;BME280;26571;41.610;25.380;2023-03-18T09:29:57;98785.47;;;10.43;nan
40850;BME280;26571;41.610;25.380;2023-03-18T09:32:23;98770.06;;;10.04;nan
40850;BME280;26571;41.610;25.380;2023-03-18T09:34:50;98793.06;;;9.58;nan
40850;BME280;26571;41.610;25.380;2023-03-18T09:37:16;98791.53;;;9.73;nan
40850;BME280;26571;41.610;25.380;2023-03-18T09:39:43;98793.34;;;9.91;nan
40850;BME280;26571;41.610;25.380;2023-03-18T09:44:43;98795.81;;;9.92;nan
40850;BME280;26571;41.610;25.380;2023-03-18T09:53:08;98787.91;;;10.18;nan
40850;BME280;26571;41.610;25.380;2023-03-18T09:55:47;98792.38;;;10.44;nan
40850;BME280;26571;41.610;25.380;2023-03-18T10:00:47;98769.06;;;9.97;nan
40850;BME280;26571;41.610;25.380;2023-03-18T10:05:54;98796.50;;;10.20;nan
40850;BME280;26571;41.610;25.380;2023-03-18T10:11:39;98800.25;;;10.18;nan
40850;BME280;26571;41.610;25.380;2023-03-18T10:17:20;98794.31;;;9.90;nan
40850;BME280;26571;41.610;25.380;2023-03-18T10:20:00;98797.88;;;9.80;nan
40850;BME280;26571;41.610;25.380;2023-03-18T10:25:27;98801.00;;;9.84;nan
40850;BME280;26571;41.610;25.380;2023-03-18T10:33:55;98807.84;;;9.95;nan
40850;BME280;26571;41.610;25.380;2023-03-18T10:36:28;98803.50;;;9.86;nan
40850;BME280;26571;41.610;25.380;2023-03-18T10:38:56;98803.94;;;9.81;nan
40850;BME280;26571;41.610;25.380;2023-03-18T10:41:36;98800.16;;;9.83;nan
40850;BME280;26571;41.610;25.380;2023-03-18T10:44:31;98800.59;;;9.97;nan
40850;BME280;26571;41.610;25.380;2023-03-18T10:47:01;98813.28;;;9.75;nan
40850;BME280;26571;41.610;25.380;2023-03-18T10:49:30;98809.75;;;9.67;nan
40850;BME280;26571;41.610;25.380;2023-03-18T10:54:40;98802.06;;;9.73;nan
40850;BME280;26571;41.610;25.380;2023-03-18T10:57:11;98798.56;;;9.47;nan
40850;BME280;26571;41.610;25.380;2023-03-18T10:59:37;98798.91;;;9.16;nan
40850;BME280;26571;41.610;25.380;2023-03-18T11:02:06;98807.19;;;8.94;nan
40850;BME280;26571;41.610;25.380;2023-03-18T11:04:42;98801.25;;;8.64;nan
40850;BME280;26571;41.610;25.380;2023-03-18T11:07:17;98784.75;;;8.35;nan
40850;BME280;26571;41.610;25.380;2023-03-18T11:09:44;98794.03;;;8.39;nan
40850;BME280;26571;41.610;25.380;2023-03-18T11:12:17;98798.81;;;8.53;nan
40850;BME280;26571;41.610;25.380;2023-03-18T11:14:47;98799.31;;;8.66;nan
40850;BME280;26571;41.610;25.380;2023-03-18T11:17:28;98685.28;;;8.23;nan
40850;BME280;26571;41.610;25.380;2023-03-18T11:22:51;98800.19;;;9.48;nan
40850;BME280;26571;41.610;25.380;2023-03-18T11:25:19;98792.25;;;9.75;nan
40850;BME280;26571;41.610;25.380;2023-03-18T11:27:50;98788.91;;;9.73;nan
40850;BME280;26571;41.610;25.380;2023-03-18T11:30:20;98795.81;;;9.74;nan
40850;BME280;26571;41.610;25.380;2023-03-18T11:33:17;98790.63;;;9.82;nan
40850;BME280;26571;41.610;25.380;2023-03-18T11:36:08;98785.19;;;10.02;nan
40850;BME280;26571;41.610;25.380;2023-03-18T11:38:37;98785.66;;;10.23;nan
40850;BME280;26571;41.610;25.380;2023-03-18T11:41:21;98780.50;;;10.14;nan
40850;BME280;26571;41.610;25.380;2023-03-18T11:43:58;98779.81;;;10.29;nan
40850;BME280;26571;41.610;25.380;2023-03-18T11:49:22;98775.22;;;10.66;nan
40850;BME280;26571;41.610;25.380;2023-03-18T12:13:12;98755.00;;;11.90;nan
40850;BME280;26571;41.610;25.380;2023-03-18T12:23:58;98758.56;;;12.30;nan
40850;BME280;26571;41.610;25.380;2023-03-18T12:26:39;98751.47;;;12.22;nan
40850;BME280;26571;41.610;25.380;2023-03-18T12:36:54;98746.94;;;11.92;nan
40850;BME280;26571;41.610;25.380;2023-03-18T12:42:00;98747.25;;;11.72;nan
40850;BME280;26571;41.610;25.380;2023-03-18T12:49:54;98749.88;;;11.72;nan
40850;BME280;26571;41.610;25.380;2023-03-18T13:03:20;98743.44;;;12.07;nan
40850;BME280;26571;41.610;25.380;2023-03-18T13:05:54;98743.28;;;12.09;nan
40850;BME280;26571;41.610;25.380;2023-03-18T13:17:15;98736.88;;;12.51;nan
40850;BME280;26571;41.610;25.380;2023-03-18T13:19:42;98728.06;;;12.66;nan
40850;BME280;26571;41.610;25.380;2023-03-18T13:22:16;98720.13;;;12.66;nan
40850;BME280;26571;41.610;25.380;2023-03-18T13:27:39;98718.69;;;12.64;nan
40850;BME280;26571;41.610;25.380;2023-03-18T13:34:17;98713.94;;;12.82;nan
40850;BME280;26571;41.610;25.380;2023-03-18T13:42:42;98713.75;;;12.53;nan
40850;BME280;26571;41.610;25.380;2023-03-18T13:47:40;98709.94;;;12.08;nan
40850;BME280;26571;41.610;25.380;2023-03-18T13:52:44;98702.97;;;12.23;nan
40850;BME280;26571;41.610;25.380;2023-03-18T14:00:40;98701.81;;;12.34;nan
40850;BME280;26571;41.610;25.380;2023-03-18T14:05:43;98673.72;;;11.94;nan
40850;BME280;26571;41.610;25.380;2023-03-18T14:13:42;98703.72;;;11.68;nan
40850;BME280;26571;41.610;25.380;2023-03-18T14:16:10;98704.75;;;11.59;nan
40850;BME280;26571;41.610;25.380;2023-03-18T14:18:36;98691.88;;;11.64;nan
40850;BME280;26571;41.610;25.380;2023-03-18T14:21:04;98698.81;;;11.24;nan
40850;BME280;26571;41.610;25.380;2023-03-18T14:24:00;98701.09;;;11.27;nan
40850;BME280;26571;41.610;25.380;2023-03-18T14:26:27;98675.38;;;10.88;nan
40850;BME280;26571;41.610;25.380;2023-03-18T14:34:22;98704.88;;;11.17;nan
40850;BME280;26571;41.610;25.380;2023-03-18T14:41:58;98697.44;;;10.87;nan
40850;BME280;26571;41.610;25.380;2023-03-18T14:44:45;98693.25;;;10.60;nan
40850;BME280;26571;41.610;25.380;2023-03-18T14:47:19;98698.00;;;10.57;nan
40850;BME280;26571;41.610;25.380;2023-03-18T14:49:54;98700.59;;;10.49;nan
40850;BME280;26571;41.610;25.380;2023-03-18T14:52:30;98698.59;;;10.34;nan
40850;BME280;26571;41.610;25.380;2023-03-18T14:55:01;98693.47;;;10.33;nan
40850;BME280;26571;41.610;25.380;2023-03-18T14:57:29;98695.16;;;10.42;nan
40850;BME280;26571;41.610;25.380;2023-03-18T14:59:57;98690.75;;;10.59;nan
40850;BME280;26571;41.610;25.380;2023-03-18T15:02:26;98708.25;;;10.68;nan
40850;BME280;26571;41.610;25.380;2023-03-18T15:04:54;98649.91;;;10.39;nan
40850;BME280;26571;41.610;25.380;2023-03-18T15:07:35;98697.44;;;10.79;nan
40850;BME280;26571;41.610;25.380;2023-03-18T15:10:06;98704.34;;;10.80;nan
40850;BME280;26571;41.610;25.380;2023-03-18T15:12:31;98708.47;;;10.91;nan
40850;BME280;26571;41.610;25.380;2023-03-18T15:14:57;98708.97;;;10.95;nan
40850;BME280;26571;41.610;25.380;2023-03-18T15:17:24;98707.16;;;10.95;nan
40850;BME280;26571;41.610;25.380;2023-03-18T15:19:55;98710.13;;;11.00;nan
40850;BME280;26571;41.610;25.380;2023-03-18T15:22:22;98695.00;;;10.94;nan
40850;BME280;26571;41.610;25.380;2023-03-18T15:25:00;98703.03;;;10.93;nan
40850;BME280;26571;41.610;25.380;2023-03-18T15:27:29;98715.53;;;10.82;nan
40850;BME280;26571;41.610;25.380;2023-03-18T15:30:00;98707.75;;;10.73;nan
40850;BME280;26571;41.610;25.380;2023-03-18T15:35:14;98698.19;;;10.64;nan
40850;BME280;26571;41.610;25.380;2023-03-18T15:37:42;98697.88;;;10.67;nan
40850;BME280;26571;41.610;25.380;2023-03-18T15:42:43;98700.69;;;10.65;nan
40850;BME280;26571;41.610;25.380;2023-03-18T15:45:28;98699.69;;;10.66;nan
40850;BME280;26571;41.610;25.380;2023-03-18T15:47:54;98706.13;;;10.72;nan
40850;BME280;26571;41.610;25.380;2023-03-18T15:50:29;98709.56;;;10.72;nan
40850;BME280;26571;41.610;25.380;2023-03-18T15:53:23;98703.97;;;10.67;nan
40850;BME280;26571;41.610;25.380;2023-03-18T15:55:52;98709.06;;;10.60;nan
40850;BME280;26571;41.610;25.380;2023-03-18T15:58:39;98716.41;;;10.49;nan